createdAt,value
2018-04-30T00:00:09.048Z,16.91
2018-04-30T00:01:09.004Z,16.89
2018-04-30T00:02:08.960Z,16.98
2018-04-30T00:03:08.915Z,16.93
2018-04-30T00:04:08.872Z,16.97
2018-04-30T00:05:08.827Z,16.91
2018-04-30T00:06:08.784Z,16.89
2018-04-30T00:07:08.740Z,16.88
2018-04-30T00:08:08.695Z,16.93
2018-04-30T00:09:08.650Z,16.88
2018-04-30T00:10:08.607Z,17.00
2018-04-30T00:11:08.562Z,16.91
2018-04-30T00:12:08.518Z,16.89
2018-04-30T00:13:08.474Z,16.91
2018-04-30T00:14:08.429Z,16.86
2018-04-30T00:15:08.387Z,16.91
2018-04-30T00:16:08.341Z,16.81
2018-04-30T00:17:08.296Z,16.85
2018-04-30T00:18:08.253Z,16.78
2018-04-30T00:19:08.208Z,16.78
2018-04-30T00:20:08.164Z,16.75
2018-04-30T00:21:08.122Z,16.75
2018-04-30T00:22:08.076Z,16.78
2018-04-30T00:23:08.032Z,16.81
2018-04-30T00:24:07.987Z,16.76
2018-04-30T00:25:07.944Z,16.81
2018-04-30T00:26:07.900Z,16.79
2018-04-30T00:27:07.855Z,16.75
2018-04-30T00:28:07.811Z,16.75
2018-04-30T00:29:07.767Z,16.76
2018-04-30T00:30:07.724Z,16.82
2018-04-30T00:31:07.728Z,16.82
2018-04-30T00:32:07.634Z,16.79
2018-04-30T00:33:07.590Z,16.81
2018-04-30T00:34:07.546Z,16.66
2018-04-30T00:35:07.501Z,16.64
2018-04-30T00:36:07.457Z,16.67
2018-04-30T00:37:07.412Z,16.63
2018-04-30T00:38:07.369Z,16.73
2018-04-30T00:39:07.323Z,16.70
2018-04-30T00:40:07.280Z,16.63
2018-04-30T00:41:07.242Z,16.68
2018-04-30T00:42:07.191Z,16.66
2018-04-30T00:43:07.149Z,16.63
2018-04-30T00:44:07.102Z,16.71
2018-04-30T00:45:07.058Z,16.76
2018-04-30T00:46:07.014Z,16.68
2018-04-30T00:47:06.969Z,16.70
2018-04-30T00:48:06.927Z,16.70
2018-04-30T00:49:06.881Z,16.73
2018-04-30T00:50:06.836Z,16.67
2018-04-30T00:51:06.791Z,16.71
2018-04-30T00:52:06.747Z,16.73
2018-04-30T00:53:06.704Z,16.67
2018-04-30T00:54:06.668Z,16.71
2018-04-30T00:55:06.614Z,16.64
2018-04-30T00:56:06.570Z,16.66
2018-04-30T00:57:06.526Z,16.70
2018-04-30T00:58:06.481Z,16.67
2018-04-30T00:59:06.436Z,16.64
2018-04-30T01:00:06.392Z,16.58
2018-04-30T01:01:06.348Z,16.64
2018-04-30T01:02:06.304Z,16.63
2018-04-30T01:03:06.259Z,16.60
2018-04-30T01:04:06.215Z,16.53
2018-04-30T01:05:06.170Z,16.56
2018-04-30T01:06:06.129Z,16.53
2018-04-30T01:07:06.082Z,16.58
2018-04-30T01:08:06.037Z,16.63
2018-04-30T01:09:05.994Z,16.63
2018-04-30T01:10:05.949Z,16.60
2018-04-30T01:11:05.904Z,16.58
2018-04-30T01:12:05.911Z,16.60
2018-04-30T01:13:05.815Z,16.57
2018-04-30T01:14:05.771Z,16.56
2018-04-30T01:15:05.725Z,16.56
2018-04-30T01:16:05.682Z,16.63
2018-04-30T01:17:05.637Z,16.60
2018-04-30T01:18:05.593Z,16.50
2018-04-30T01:19:05.549Z,16.56
2018-04-30T01:20:05.504Z,16.58
2018-04-30T01:21:05.459Z,16.58
2018-04-30T01:22:05.416Z,16.52
2018-04-30T01:23:05.370Z,16.64
2018-04-30T01:24:05.326Z,16.63
2018-04-30T01:25:05.281Z,16.50
2018-04-30T01:26:05.237Z,16.57
2018-04-30T01:27:05.194Z,16.49
2018-04-30T01:28:05.151Z,16.57
2018-04-30T01:29:05.104Z,16.52
2018-04-30T01:30:05.064Z,16.53
2018-04-30T01:31:05.014Z,16.52
2018-04-30T01:32:04.970Z,16.50
2018-04-30T01:33:04.927Z,16.58
2018-04-30T01:34:04.882Z,16.50
2018-04-30T01:35:04.837Z,16.50
2018-04-30T01:36:04.792Z,16.61
2018-04-30T01:37:04.747Z,16.63
2018-04-30T01:38:04.704Z,16.58
2018-04-30T01:39:04.659Z,16.63
2018-04-30T01:40:04.614Z,16.50
2018-04-30T01:41:04.570Z,16.52
2018-04-30T01:42:04.526Z,16.61
2018-04-30T01:43:04.486Z,16.53
2018-04-30T01:44:04.437Z,16.63
2018-04-30T01:45:04.394Z,16.56
2018-04-30T01:46:04.351Z,16.63
2018-04-30T01:47:04.303Z,16.64
2018-04-30T01:48:04.308Z,16.49
2018-04-30T01:49:04.214Z,16.61
2018-04-30T01:50:04.170Z,16.63
2018-04-30T01:51:04.125Z,16.52
2018-04-30T01:52:04.103Z,16.52
2018-04-30T01:53:04.036Z,16.56
2018-04-30T01:54:03.992Z,16.58
2018-04-30T01:55:03.947Z,16.56
2018-04-30T01:56:03.905Z,16.52
2018-04-30T01:57:03.861Z,16.49
2018-04-30T01:58:03.814Z,16.60
2018-04-30T01:59:03.773Z,16.53
2018-04-30T02:00:03.725Z,16.57
2018-04-30T02:01:03.681Z,16.52
2018-04-30T02:02:03.638Z,16.48
2018-04-30T02:03:03.591Z,16.58
2018-04-30T02:04:03.546Z,16.49
2018-04-30T02:05:03.502Z,16.50
2018-04-30T02:06:03.458Z,16.48
2018-04-30T02:07:03.414Z,16.45
2018-04-30T02:08:03.369Z,16.45
2018-04-30T02:09:03.326Z,16.43
2018-04-30T02:10:03.281Z,16.42
2018-04-30T02:11:03.237Z,16.43
2018-04-30T02:12:03.228Z,16.42
2018-04-30T02:13:03.148Z,16.46
2018-04-30T02:14:03.102Z,16.48
2018-04-30T02:15:03.056Z,16.43
2018-04-30T02:16:03.015Z,16.41
2018-04-30T02:17:02.968Z,16.41
2018-04-30T02:18:02.927Z,16.35
2018-04-30T02:19:02.879Z,16.31
2018-04-30T02:20:02.834Z,16.28
2018-04-30T02:21:02.790Z,16.33
2018-04-30T02:22:02.746Z,16.33
2018-04-30T02:23:02.700Z,16.27
2018-04-30T02:24:02.656Z,16.28
2018-04-30T02:25:02.611Z,16.25
2018-04-30T02:26:02.567Z,16.24
2018-04-30T02:27:02.522Z,16.30
2018-04-30T02:28:02.478Z,16.27
2018-04-30T02:29:02.437Z,16.17
2018-04-30T02:30:02.389Z,16.23
2018-04-30T02:31:02.344Z,16.28
2018-04-30T02:32:02.299Z,16.15
2018-04-30T02:33:02.255Z,16.23
2018-04-30T02:34:02.210Z,16.25
2018-04-30T02:35:02.164Z,16.23
2018-04-30T02:36:02.125Z,16.23
2018-04-30T02:37:02.078Z,16.20
2018-04-30T02:38:02.030Z,16.12
2018-04-30T02:39:01.986Z,16.20
2018-04-30T02:40:01.941Z,16.21
2018-04-30T02:41:01.897Z,16.20
2018-04-30T02:42:01.854Z,16.17
2018-04-30T02:43:01.809Z,16.15
2018-04-30T02:44:01.764Z,16.14
2018-04-30T02:45:01.761Z,16.17
2018-04-30T02:46:01.674Z,16.12
2018-04-30T02:47:01.629Z,16.09
2018-04-30T02:48:01.584Z,16.09
2018-04-30T02:49:01.540Z,16.07
2018-04-30T02:50:01.496Z,16.12
2018-04-30T02:51:01.451Z,16.12
2018-04-30T02:52:01.405Z,16.11
2018-04-30T02:53:01.361Z,16.07
2018-04-30T02:54:01.316Z,16.04
2018-04-30T02:55:01.271Z,16.05
2018-04-30T02:56:01.225Z,16.11
2018-04-30T02:57:01.186Z,16.02
2018-04-30T02:58:01.147Z,16.01
2018-04-30T02:59:01.093Z,16.00
2018-04-30T03:00:01.047Z,16.02
2018-04-30T03:01:01.002Z,16.04
2018-04-30T03:02:00.957Z,16.04
2018-04-30T03:03:00.911Z,16.05
2018-04-30T03:04:00.868Z,16.01
2018-04-30T03:05:00.822Z,16.00
2018-04-30T03:06:00.778Z,15.97
2018-04-30T03:07:00.734Z,15.94
2018-04-30T03:08:00.688Z,15.87
2018-04-30T03:09:00.643Z,15.94
2018-04-30T03:10:00.599Z,15.90
2018-04-30T03:11:00.570Z,15.92
2018-04-30T03:12:00.511Z,15.86
2018-04-30T03:13:00.464Z,15.84
2018-04-30T03:14:00.420Z,15.83
2018-04-30T03:15:00.374Z,15.82
2018-04-30T03:16:00.330Z,15.80
2018-04-30T03:17:00.285Z,15.86
2018-04-30T03:18:00.241Z,15.89
2018-04-30T03:19:00.195Z,15.84
2018-04-30T03:20:00.150Z,15.82
2018-04-30T03:21:00.105Z,15.78
2018-04-30T03:22:00.061Z,15.78
2018-04-30T03:23:00.015Z,15.75
2018-04-30T03:23:59.970Z,15.69
2018-04-30T03:24:59.926Z,15.71
2018-04-30T03:25:59.881Z,15.67
2018-04-30T03:26:59.836Z,15.60
2018-04-30T03:27:59.791Z,15.68
2018-04-30T03:28:59.747Z,15.68
2018-04-30T03:29:59.702Z,15.67
2018-04-30T03:30:59.657Z,15.71
2018-04-30T03:31:59.612Z,15.69
2018-04-30T03:32:59.568Z,15.62
2018-04-30T03:33:59.527Z,15.74
2018-04-30T03:34:59.479Z,15.67
2018-04-30T03:35:59.433Z,15.67
2018-04-30T03:36:59.390Z,15.59
2018-04-30T03:37:59.344Z,15.64
2018-04-30T03:38:59.299Z,15.72
2018-04-30T03:39:59.254Z,15.62
2018-04-30T03:40:59.210Z,15.62
2018-04-30T03:41:59.165Z,15.56
2018-04-30T03:42:59.118Z,15.68
2018-04-30T03:43:59.075Z,15.62
2018-04-30T03:44:59.030Z,15.67
2018-04-30T03:45:58.986Z,15.60
2018-04-30T03:46:58.939Z,15.56
2018-04-30T03:47:58.894Z,15.57
2018-04-30T03:48:58.850Z,15.57
2018-04-30T03:49:58.805Z,15.51
2018-04-30T03:50:58.759Z,15.60
2018-04-30T03:51:58.715Z,15.60
2018-04-30T03:52:58.670Z,15.57
2018-04-30T03:53:58.625Z,15.54
2018-04-30T03:54:58.580Z,15.56
2018-04-30T03:55:58.534Z,15.56
2018-04-30T03:56:58.489Z,15.65
2018-04-30T03:57:58.452Z,15.56
2018-04-30T03:58:58.399Z,15.62
2018-04-30T03:59:58.355Z,15.60
2018-04-30T04:00:58.310Z,15.62
2018-04-30T04:01:58.266Z,15.56
2018-04-30T04:02:58.237Z,15.62
2018-04-30T04:03:58.175Z,15.60
2018-04-30T04:04:58.130Z,15.53
2018-04-30T04:05:58.086Z,15.50
2018-04-30T04:06:58.040Z,15.50
2018-04-30T04:07:57.995Z,15.53
2018-04-30T04:08:57.950Z,15.50
2018-04-30T04:09:57.905Z,15.50
2018-04-30T04:10:57.860Z,15.57
2018-04-30T04:11:57.815Z,15.54
2018-04-30T04:12:57.770Z,15.54
2018-04-30T04:13:57.725Z,15.51
2018-04-30T04:14:57.679Z,15.49
2018-04-30T04:15:57.634Z,15.53
2018-04-30T04:16:57.589Z,15.57
2018-04-30T04:17:57.545Z,15.60
2018-04-30T04:18:57.499Z,15.54
2018-04-30T04:19:57.454Z,15.56
2018-04-30T04:20:57.409Z,15.59
2018-04-30T04:21:57.364Z,15.64
2018-04-30T04:22:57.318Z,15.64
2018-04-30T04:23:57.274Z,15.67
2018-04-30T04:24:57.229Z,15.68
2018-04-30T04:25:57.189Z,15.69
2018-04-30T04:26:57.139Z,15.69
2018-04-30T04:27:57.094Z,15.71
2018-04-30T04:28:57.050Z,15.76
2018-04-30T04:29:57.005Z,15.80
2018-04-30T04:30:56.960Z,15.84
2018-04-30T04:31:56.915Z,15.80
2018-04-30T04:32:56.871Z,15.82
2018-04-30T04:33:56.827Z,15.82
2018-04-30T04:34:56.780Z,15.87
2018-04-30T04:35:56.736Z,15.87
2018-04-30T04:36:56.693Z,15.93
2018-04-30T04:37:56.648Z,16.02
2018-04-30T04:38:56.610Z,15.93
2018-04-30T04:39:56.557Z,16.02
2018-04-30T04:40:56.512Z,16.01
2018-04-30T04:41:56.469Z,16.01
2018-04-30T04:42:56.427Z,16.08
2018-04-30T04:43:56.378Z,16.07
2018-04-30T04:44:56.334Z,16.14
2018-04-30T04:45:56.289Z,16.14
2018-04-30T04:46:56.244Z,16.20
2018-04-30T04:47:56.202Z,16.17
2018-04-30T04:48:56.155Z,16.17
2018-04-30T04:49:56.111Z,16.43
2018-04-30T04:50:56.066Z,16.21
2018-04-30T04:51:56.065Z,16.31
2018-04-30T04:52:55.977Z,16.21
2018-04-30T04:53:55.934Z,16.30
2018-04-30T04:54:55.888Z,16.41
2018-04-30T04:55:55.844Z,16.42
2018-04-30T04:56:55.800Z,16.43
2018-04-30T04:57:55.756Z,16.46
2018-04-30T04:58:55.710Z,16.50
2018-04-30T04:59:55.667Z,16.52
2018-04-30T05:00:55.623Z,16.50
2018-04-30T05:01:55.587Z,16.50
2018-04-30T05:02:55.534Z,16.61
2018-04-30T05:03:55.490Z,16.63
2018-04-30T05:04:55.452Z,16.68
2018-04-30T05:05:55.402Z,16.68
2018-04-30T05:06:55.357Z,16.82
2018-04-30T05:07:55.313Z,16.76
2018-04-30T05:08:55.269Z,16.81
2018-04-30T05:09:55.225Z,16.91
2018-04-30T05:10:55.185Z,16.89
2018-04-30T05:11:55.136Z,16.98
2018-04-30T05:12:55.095Z,17.08
2018-04-30T05:13:55.049Z,17.07
2018-04-30T05:14:55.004Z,17.15
2018-04-30T05:15:54.960Z,17.21
2018-04-30T05:16:54.916Z,17.23
2018-04-30T05:17:54.873Z,17.30
2018-04-30T05:18:54.833Z,17.40
2018-04-30T05:19:54.834Z,17.38
2018-04-30T05:20:54.755Z,17.41
2018-04-30T05:21:54.697Z,17.38
2018-04-30T05:22:54.652Z,17.48
2018-04-30T05:23:54.613Z,17.78
2018-04-30T05:24:54.567Z,17.89
2018-04-30T05:25:54.522Z,18.25
2018-04-30T05:26:54.476Z,18.75
2018-04-30T05:27:54.434Z,19.18
2018-04-30T05:28:54.391Z,19.56
2018-04-30T05:29:54.352Z,19.78
2018-04-30T05:30:54.304Z,20.05
2018-04-30T05:31:54.261Z,20.54
2018-04-30T05:32:54.222Z,21.03
2018-04-30T05:33:54.253Z,21.49
2018-04-30T05:34:54.133Z,21.98
2018-04-30T05:35:54.091Z,22.31
2018-04-30T05:36:54.049Z,22.79
2018-04-30T05:37:54.008Z,23.20
2018-04-30T05:38:53.965Z,23.65
2018-04-30T05:39:53.924Z,24.10
2018-04-30T05:40:53.883Z,24.43
2018-04-30T05:41:53.843Z,24.68
2018-04-30T05:42:53.801Z,25.02
2018-04-30T05:43:53.762Z,25.17
2018-04-30T05:44:53.722Z,25.46
2018-04-30T05:45:53.685Z,25.60
2018-04-30T05:46:53.643Z,25.64
2018-04-30T05:47:53.653Z,25.65
2018-04-30T05:48:53.566Z,25.42
2018-04-30T05:49:53.527Z,25.08
2018-04-30T05:50:53.487Z,24.60
2018-04-30T05:51:53.448Z,23.97
2018-04-30T05:52:53.414Z,23.43
2018-04-30T05:53:53.371Z,23.00
2018-04-30T05:54:53.331Z,22.51
2018-04-30T05:55:53.293Z,22.03
2018-04-30T05:56:53.254Z,21.59
2018-04-30T05:57:53.213Z,21.21
2018-04-30T05:58:53.173Z,20.85
2018-04-30T05:59:53.133Z,20.51
2018-04-30T06:00:53.093Z,20.32
2018-04-30T06:01:53.053Z,20.42
2018-04-30T06:02:53.011Z,20.36
2018-04-30T06:03:52.971Z,20.35
2018-04-30T06:04:52.930Z,20.42
2018-04-30T06:05:52.889Z,20.77
2018-04-30T06:06:52.906Z,21.27
2018-04-30T06:07:52.808Z,22.09
2018-04-30T06:08:52.766Z,22.92
2018-04-30T06:09:52.727Z,23.46
2018-04-30T06:10:52.688Z,23.95
2018-04-30T06:11:52.651Z,24.49
2018-04-30T06:12:52.605Z,25.09
2018-04-30T06:13:52.565Z,25.58
2018-04-30T06:14:52.525Z,26.02
2018-04-30T06:15:52.493Z,26.58
2018-04-30T06:16:52.448Z,26.97
2018-04-30T06:17:52.410Z,27.28
2018-04-30T06:18:52.371Z,27.43
2018-04-30T06:19:52.337Z,27.60
2018-04-30T06:20:52.296Z,27.81
2018-04-30T06:21:52.260Z,28.15
2018-04-30T06:22:52.222Z,28.25
2018-04-30T06:23:52.186Z,28.09
2018-04-30T06:24:52.150Z,28.14
2018-04-30T06:25:52.114Z,28.19
2018-04-30T06:26:52.174Z,28.40
2018-04-30T06:27:52.042Z,28.80
2018-04-30T06:28:52.008Z,28.98
2018-04-30T06:29:51.973Z,29.19
2018-04-30T06:30:51.935Z,29.41
2018-04-30T06:31:51.900Z,29.53
2018-04-30T06:32:51.866Z,29.70
2018-04-30T06:33:51.831Z,29.79
2018-04-30T06:34:51.795Z,29.95
2018-04-30T06:35:51.815Z,29.87
2018-04-30T06:36:51.725Z,29.90
2018-04-30T06:37:51.693Z,30.07
2018-04-30T06:38:51.657Z,30.29
2018-04-30T06:39:51.624Z,30.54
2018-04-30T06:40:51.590Z,30.55
2018-04-30T06:41:51.557Z,30.62
2018-04-30T06:42:51.521Z,30.60
2018-04-30T06:43:51.491Z,30.73
2018-04-30T06:44:51.457Z,30.98
2018-04-30T06:45:51.420Z,31.23
2018-04-30T06:46:51.386Z,31.44
2018-04-30T06:47:51.353Z,31.43
2018-04-30T06:48:51.319Z,31.48
2018-04-30T06:49:51.286Z,31.56
2018-04-30T06:50:51.253Z,31.66
2018-04-30T06:51:51.219Z,31.80
2018-04-30T06:52:51.186Z,31.84
2018-04-30T06:53:51.155Z,32.07
2018-04-30T06:54:51.120Z,32.56
2018-04-30T06:55:51.088Z,32.81
2018-04-30T06:56:51.058Z,32.96
2018-04-30T06:57:51.023Z,32.82
2018-04-30T06:58:50.990Z,32.93
2018-04-30T06:59:50.957Z,32.69
2018-04-30T07:00:50.926Z,32.65
2018-04-30T07:01:50.897Z,32.75
2018-04-30T07:02:50.863Z,32.94
2018-04-30T07:03:50.830Z,33.19
2018-04-30T07:04:50.798Z,33.44
2018-04-30T07:05:50.768Z,33.50
2018-04-30T07:06:50.731Z,33.63
2018-04-30T07:07:50.699Z,33.50
2018-04-30T07:08:50.668Z,33.49
2018-04-30T07:09:50.644Z,33.38
2018-04-30T07:10:50.604Z,33.19
2018-04-30T07:11:50.572Z,33.34
2018-04-30T07:12:50.548Z,33.53
2018-04-30T07:13:50.510Z,33.88
2018-04-30T07:14:50.478Z,34.28
2018-04-30T07:15:50.447Z,34.59
2018-04-30T07:16:50.415Z,35.07
2018-04-30T07:17:50.384Z,35.23
2018-04-30T07:18:50.352Z,35.18
2018-04-30T07:19:50.322Z,35.23
2018-04-30T07:20:50.289Z,35.06
2018-04-30T07:21:50.260Z,34.64
2018-04-30T07:22:50.228Z,34.21
2018-04-30T07:23:50.197Z,33.75
2018-04-30T07:24:50.165Z,33.35
2018-04-30T07:25:50.136Z,33.11
2018-04-30T07:26:50.103Z,32.92
2018-04-30T07:27:50.099Z,32.88
2018-04-30T07:28:50.040Z,32.75
2018-04-30T07:29:50.008Z,32.74
2018-04-30T07:30:49.976Z,32.94
2018-04-30T07:31:49.948Z,33.06
2018-04-30T07:32:49.919Z,33.03
2018-04-30T07:33:49.881Z,33.19
2018-04-30T07:34:49.850Z,33.69
2018-04-30T07:35:49.817Z,33.94
2018-04-30T07:36:49.785Z,34.61
2018-04-30T07:37:49.754Z,35.31
2018-04-30T07:38:49.722Z,36.05
2018-04-30T07:39:49.691Z,36.51
2018-04-30T07:40:49.662Z,36.54
2018-04-30T07:41:49.629Z,36.50
2018-04-30T07:42:49.598Z,36.44
2018-04-30T07:43:49.568Z,36.43
2018-04-30T07:44:49.537Z,36.46
2018-04-30T07:45:49.507Z,36.50
2018-04-30T07:46:49.476Z,36.47
2018-04-30T07:47:49.496Z,36.46
2018-04-30T07:48:49.415Z,36.80
2018-04-30T07:49:49.386Z,37.24
2018-04-30T07:50:49.357Z,37.57
2018-04-30T07:51:49.325Z,37.60
2018-04-30T07:52:49.299Z,37.51
2018-04-30T07:53:49.266Z,37.46
2018-04-30T07:54:49.235Z,37.47
2018-04-30T07:55:49.206Z,37.55
2018-04-30T07:56:49.176Z,37.89
2018-04-30T07:57:49.147Z,37.91
2018-04-30T07:58:49.117Z,37.74
2018-04-30T07:59:49.088Z,37.49
2018-04-30T08:00:49.059Z,37.15
2018-04-30T08:01:49.030Z,37.03
2018-04-30T08:02:49.000Z,36.73
2018-04-30T08:03:48.970Z,36.43
2018-04-30T08:04:48.942Z,36.19
2018-04-30T08:05:48.913Z,36.23
2018-04-30T08:06:48.883Z,36.16
2018-04-30T08:07:48.854Z,36.59
2018-04-30T08:08:48.825Z,37.17
2018-04-30T08:09:48.797Z,37.75
2018-04-30T08:10:48.765Z,38.30
2018-04-30T08:11:48.743Z,38.41
2018-04-30T08:12:48.712Z,38.53
2018-04-30T08:13:48.679Z,38.50
2018-04-30T08:14:48.669Z,38.87
2018-04-30T08:15:48.623Z,39.33
2018-04-30T08:16:48.592Z,39.35
2018-04-30T08:17:48.563Z,39.30
2018-04-30T08:18:48.535Z,39.11
2018-04-30T08:19:48.511Z,38.95
2018-04-30T08:20:48.478Z,39.16
2018-04-30T08:21:48.449Z,39.35
2018-04-30T08:22:48.420Z,39.73
2018-04-30T08:23:48.392Z,40.10
2018-04-30T08:24:48.364Z,40.20
2018-04-30T08:25:48.335Z,39.85
2018-04-30T08:26:48.337Z,39.51
2018-04-30T08:27:48.280Z,39.06
2018-04-30T08:28:48.252Z,38.79
2018-04-30T08:29:48.225Z,38.88
2018-04-30T08:30:48.196Z,39.28
2018-04-30T08:31:48.172Z,39.45
2018-04-30T08:32:48.140Z,39.52
2018-04-30T08:33:48.115Z,39.85
2018-04-30T08:34:48.090Z,40.25
2018-04-30T08:35:48.056Z,40.80
2018-04-30T08:36:48.028Z,41.16
2018-04-30T08:37:48.002Z,41.13
2018-04-30T08:38:47.974Z,41.23
2018-04-30T08:39:47.949Z,41.14
2018-04-30T08:40:47.921Z,41.06
2018-04-30T08:41:47.893Z,41.04
2018-04-30T08:42:47.865Z,41.10
2018-04-30T08:43:47.840Z,41.06
2018-04-30T08:44:47.812Z,40.88
2018-04-30T08:45:47.785Z,40.57
2018-04-30T08:46:47.758Z,40.55
2018-04-30T08:47:47.732Z,40.67
2018-04-30T08:48:47.709Z,40.89
2018-04-30T08:49:47.678Z,41.06
2018-04-30T08:50:47.650Z,41.35
2018-04-30T08:51:47.624Z,41.48
2018-04-30T08:52:47.598Z,41.60
2018-04-30T08:53:47.570Z,41.86
2018-04-30T08:54:47.543Z,42.16
2018-04-30T08:55:47.516Z,42.27
2018-04-30T08:56:47.489Z,42.39
2018-04-30T08:57:47.463Z,42.52
2018-04-30T08:58:47.436Z,42.78
2018-04-30T08:59:47.409Z,42.76
2018-04-30T09:00:47.384Z,42.59
2018-04-30T09:01:47.363Z,42.33
2018-04-30T09:02:47.331Z,41.36
2018-04-30T09:03:47.304Z,40.79
2018-04-30T09:04:47.277Z,40.67
2018-04-30T09:05:47.251Z,40.72
2018-04-30T09:06:47.223Z,41.08
2018-04-30T09:07:47.197Z,41.49
2018-04-30T09:08:47.171Z,41.84
2018-04-30T09:09:47.183Z,42.23
2018-04-30T09:10:47.117Z,42.43
2018-04-30T09:11:47.093Z,42.59
2018-04-30T09:12:47.069Z,42.70
2018-04-30T09:13:47.089Z,42.76
2018-04-30T09:14:47.013Z,42.35
2018-04-30T09:15:46.986Z,41.70
2018-04-30T09:16:46.963Z,41.47
2018-04-30T09:17:46.934Z,41.25
2018-04-30T09:18:46.912Z,41.11
2018-04-30T09:19:46.882Z,41.14
2018-04-30T09:20:46.855Z,41.18
2018-04-30T09:21:46.829Z,41.36
2018-04-30T09:22:46.802Z,41.58
2018-04-30T09:23:46.863Z,41.74
2018-04-30T09:24:46.763Z,41.89
2018-04-30T09:25:46.723Z,41.74
2018-04-30T09:26:46.696Z,41.66
2018-04-30T09:27:46.670Z,41.60
2018-04-30T09:28:46.644Z,41.52
2018-04-30T09:29:46.618Z,41.58
2018-04-30T09:30:46.590Z,41.49
2018-04-30T09:31:46.570Z,41.47
2018-04-30T09:32:46.537Z,41.33
2018-04-30T09:33:46.514Z,41.11
2018-04-30T09:34:46.484Z,41.10
2018-04-30T09:35:46.457Z,41.21
2018-04-30T09:36:46.431Z,41.17
2018-04-30T09:37:46.408Z,41.10
2018-04-30T09:38:46.377Z,40.84
2018-04-30T09:39:46.353Z,40.73
2018-04-30T09:40:46.324Z,40.88
2018-04-30T09:41:46.297Z,40.77
2018-04-30T09:42:46.269Z,40.60
2018-04-30T09:43:46.242Z,40.27
2018-04-30T09:44:46.215Z,39.72
2018-04-30T09:45:46.194Z,38.84
2018-04-30T09:46:46.159Z,37.81
2018-04-30T09:47:46.131Z,36.94
2018-04-30T09:48:46.103Z,36.09
2018-04-30T09:49:46.085Z,35.38
2018-04-30T09:50:46.048Z,34.65
2018-04-30T09:51:46.015Z,34.00
2018-04-30T09:52:45.985Z,33.41
2018-04-30T09:53:45.959Z,32.94
2018-04-30T09:54:45.923Z,32.52
2018-04-30T09:55:45.892Z,32.23
2018-04-30T09:56:45.860Z,31.93
2018-04-30T09:57:45.859Z,31.70
2018-04-30T09:58:45.797Z,31.36
2018-04-30T09:59:45.765Z,31.06
2018-04-30T10:00:45.732Z,30.91
2018-04-30T10:01:45.700Z,30.80
2018-04-30T10:02:45.665Z,30.69
2018-04-30T10:03:45.633Z,30.62
2018-04-30T10:04:45.604Z,30.47
2018-04-30T10:05:45.572Z,30.35
2018-04-30T10:06:45.532Z,30.24
2018-04-30T10:07:45.499Z,30.17
2018-04-30T10:08:45.465Z,30.17
2018-04-30T10:09:45.431Z,30.05
2018-04-30T10:10:45.397Z,30.10
2018-04-30T10:11:45.362Z,30.11
2018-04-30T10:12:45.328Z,30.07
2018-04-30T10:13:45.294Z,29.98
2018-04-30T10:14:45.259Z,29.87
2018-04-30T10:15:45.224Z,29.85
2018-04-30T10:16:45.194Z,29.80
2018-04-30T10:17:45.227Z,29.76
2018-04-30T10:18:45.120Z,29.90
2018-04-30T10:19:45.088Z,30.00
2018-04-30T10:20:45.050Z,29.87
2018-04-30T10:21:45.015Z,29.87
2018-04-30T10:22:44.979Z,29.89
2018-04-30T10:23:45.002Z,29.82
2018-04-30T10:24:44.916Z,29.63
2018-04-30T10:25:44.881Z,29.65
2018-04-30T10:26:44.838Z,29.55
2018-04-30T10:27:44.803Z,29.53
2018-04-30T10:28:44.768Z,29.42
2018-04-30T10:29:44.733Z,29.24
2018-04-30T10:30:44.698Z,29.21
2018-04-30T10:31:44.700Z,29.19
2018-04-30T10:32:44.626Z,29.16
2018-04-30T10:33:44.591Z,29.14
2018-04-30T10:34:44.557Z,29.26
2018-04-30T10:35:44.518Z,29.23
2018-04-30T10:36:44.482Z,29.26
2018-04-30T10:37:44.497Z,29.24
2018-04-30T10:38:44.410Z,29.19
2018-04-30T10:39:44.376Z,29.16
2018-04-30T10:40:44.339Z,28.96
2018-04-30T10:41:44.304Z,28.85
2018-04-30T10:42:44.267Z,28.59
2018-04-30T10:43:44.231Z,28.36
2018-04-30T10:44:44.198Z,28.25
2018-04-30T10:45:44.233Z,28.02
2018-04-30T10:46:44.121Z,27.88
2018-04-30T10:47:44.087Z,27.79
2018-04-30T10:48:44.049Z,27.67
2018-04-30T10:49:44.013Z,27.65
2018-04-30T10:50:43.975Z,27.50
2018-04-30T10:51:44.074Z,27.43
2018-04-30T10:52:43.906Z,27.49
2018-04-30T10:53:43.865Z,27.47
2018-04-30T10:54:43.833Z,27.49
2018-04-30T10:55:43.798Z,27.47
2018-04-30T10:56:43.754Z,27.54
2018-04-30T10:57:43.717Z,27.57
2018-04-30T10:58:43.686Z,27.60
2018-04-30T10:59:43.643Z,27.75
2018-04-30T11:00:43.607Z,27.81
2018-04-30T11:01:43.569Z,27.74
2018-04-30T11:02:43.609Z,27.75
2018-04-30T11:03:43.494Z,27.74
2018-04-30T11:04:43.463Z,27.60
2018-04-30T11:05:43.426Z,27.62
2018-04-30T11:06:43.383Z,27.70
2018-04-30T11:07:43.346Z,27.93
2018-04-30T11:08:43.310Z,28.09
2018-04-30T11:09:43.273Z,28.27
2018-04-30T11:10:43.235Z,28.51
2018-04-30T11:11:43.200Z,28.67
2018-04-30T11:12:43.162Z,28.81
2018-04-30T11:13:43.125Z,28.74
2018-04-30T11:14:43.091Z,28.58
2018-04-30T11:15:43.052Z,28.41
2018-04-30T11:16:43.015Z,28.19
2018-04-30T11:17:42.978Z,28.07
2018-04-30T11:18:42.941Z,27.79
2018-04-30T11:19:42.958Z,27.63
2018-04-30T11:20:42.868Z,27.31
2018-04-30T11:21:42.837Z,27.04
2018-04-30T11:22:42.873Z,26.81
2018-04-30T11:23:42.756Z,26.69
2018-04-30T11:24:42.719Z,26.50
2018-04-30T11:25:42.682Z,26.44
2018-04-30T11:26:42.648Z,26.40
2018-04-30T11:27:42.679Z,26.52
2018-04-30T11:28:42.569Z,26.51
2018-04-30T11:29:42.532Z,26.47
2018-04-30T11:30:42.493Z,26.43
2018-04-30T11:31:42.456Z,26.33
2018-04-30T11:32:42.418Z,26.20
2018-04-30T11:33:42.380Z,25.98
2018-04-30T11:34:42.341Z,25.83
2018-04-30T11:35:42.303Z,25.57
2018-04-30T11:36:42.270Z,25.50
2018-04-30T11:37:42.228Z,25.28
2018-04-30T11:38:42.188Z,25.27
2018-04-30T11:39:42.151Z,25.20
2018-04-30T11:40:42.111Z,25.32
2018-04-30T11:41:42.076Z,25.27
2018-04-30T11:42:42.034Z,25.38
2018-04-30T11:43:41.995Z,25.30
2018-04-30T11:44:41.956Z,25.52
2018-04-30T11:45:41.918Z,25.50
2018-04-30T11:46:41.878Z,25.64
2018-04-30T11:47:41.840Z,25.83
2018-04-30T11:48:41.801Z,25.92
2018-04-30T11:49:41.763Z,25.99
2018-04-30T11:50:41.723Z,25.98
2018-04-30T11:51:41.685Z,25.97
2018-04-30T11:52:41.648Z,26.05
2018-04-30T11:53:41.608Z,25.92
2018-04-30T11:54:41.569Z,25.85
2018-04-30T11:55:41.530Z,25.85
2018-04-30T11:56:41.492Z,25.77
2018-04-30T11:57:41.453Z,25.64
2018-04-30T11:58:41.492Z,25.52
2018-04-30T11:59:41.432Z,25.47
2018-04-30T12:00:41.340Z,25.45
2018-04-30T12:01:41.303Z,25.50
2018-04-30T12:02:41.259Z,25.54
2018-04-30T12:03:41.221Z,25.64
2018-04-30T12:04:41.182Z,25.77
2018-04-30T12:05:41.144Z,25.87
2018-04-30T12:06:41.104Z,25.94
2018-04-30T12:07:41.067Z,25.90
2018-04-30T12:08:41.029Z,25.95
2018-04-30T12:09:40.989Z,25.99
2018-04-30T12:10:40.949Z,25.92
2018-04-30T12:11:40.911Z,25.94
2018-04-30T12:12:40.873Z,26.01
2018-04-30T12:13:40.905Z,25.99
2018-04-30T12:14:40.796Z,25.97
2018-04-30T12:15:40.757Z,25.97
2018-04-30T12:16:40.730Z,25.95
2018-04-30T12:17:40.680Z,25.85
2018-04-30T12:18:40.641Z,25.73
2018-04-30T12:19:40.608Z,25.61
2018-04-30T12:20:40.565Z,25.52
2018-04-30T12:21:40.529Z,25.43
2018-04-30T12:22:40.487Z,25.30
2018-04-30T12:23:40.449Z,25.21
2018-04-30T12:24:40.411Z,25.10
2018-04-30T12:25:40.375Z,24.96
2018-04-30T12:26:40.336Z,24.80
2018-04-30T12:27:40.295Z,24.62
2018-04-30T12:28:40.256Z,24.58
2018-04-30T12:29:40.300Z,24.45
2018-04-30T12:30:40.177Z,24.43
2018-04-30T12:31:40.138Z,24.42
2018-04-30T12:32:40.099Z,24.50
2018-04-30T12:33:40.060Z,24.42
2018-04-30T12:34:40.020Z,24.50
2018-04-30T12:35:40.087Z,24.58
2018-04-30T12:36:39.941Z,24.68
2018-04-30T12:37:39.903Z,24.65
2018-04-30T12:38:39.862Z,24.62
2018-04-30T12:39:39.823Z,24.65
2018-04-30T12:40:39.785Z,24.68
2018-04-30T12:41:39.746Z,24.77
2018-04-30T12:42:39.705Z,24.96
2018-04-30T12:43:39.740Z,24.93
2018-04-30T12:44:39.628Z,25.08
2018-04-30T12:45:39.589Z,25.23
2018-04-30T12:46:39.549Z,25.23
2018-04-30T12:47:39.510Z,25.32
2018-04-30T12:48:39.478Z,25.39
2018-04-30T12:49:39.452Z,25.39
2018-04-30T12:50:39.397Z,25.32
2018-04-30T12:51:39.360Z,25.23